Terminal Aerodrome Forecast
Issued by NWS

Home | Current Version | Previous Version | Text Only | Print | Product List | Glossary On
Versions: 1 2 3 4 5 6 7 8 9 10 11 12 13 14 15 16 17 18 19 20 21 22 23 24 25 26
000
FTUS41 KBUF 280300 AAB
TAFIAG
TAF AMD
KIAG 280330Z 2804/2824 28011KT P6SM -RA VCTS BKN050CB OVC110
      TEMPO 2804/2808 3SM -TSRA BKN025CB
     FM280800 01011KT 3SM RA VCTS BKN007 OVC040CB
     FM281400 36011KT 6SM -SHRA BKN035 OVC040
     FM281800 34012G18KT P6SM BKN100=

USA.gov is the U.S. government's official web portal to all federal, state and local government web resources and services.